Time;durP1;ratioP1;P1;durP2;ratioP2;P2;SDS_P1;SDS_P2;PMS_P1;PMS_P2;Temp;Humidity;BMP_temperature;BMP_pressure;BME280_temperature;BME280_humidity;BME280_pressure;Samples;Min_cycle;Max_cycle;Signal;HPM_P1;HPM_P2
2021/06/04 00:00:45;;;;;;;7.65;4.70;;;13.30;99.90;;;;;;4996883;28;20085;-88
2021/06/04 00:03:17;;;;;;;5.63;5.13;;;13.30;99.90;;;;;;5013628;28;20128;-89
2021/06/04 00:05:48;;;;;;;5.07;4.68;;;13.30;99.90;;;;;;4997993;28;20054;-87
2021/06/04 00:08:17;;;;;;;5.53;5.13;;;13.30;99.90;;;;;;4996370;28;20417;-88
2021/06/04 00:10:49;;;;;;;5.75;5.28;;;13.30;99.90;;;;;;4996970;28;20077;-90
2021/06/04 00:13:28;;;;;;;7.95;5.25;;;13.30;99.90;;;;;;4996591;28;20110;-88
2021/06/04 00:16:09;;;;;;;5.53;5.15;;;13.20;99.90;;;;;;4996536;28;20052;-90
2021/06/04 00:18:37;;;;;;;9.32;5.57;;;13.30;99.90;;;;;;4996475;28;20050;-90
2021/06/04 00:21:08;;;;;;;5.95;5.45;;;13.20;99.90;;;;;;5013583;28;20415;-90
2021/06/04 00:23:34;;;;;;;5.97;5.22;;;13.30;99.90;;;;;;4996615;28;20046;-90
2021/06/04 00:26:03;;;;;;;5.90;5.50;;;13.30;99.90;;;;;;5013672;28;20056;-89
2021/06/04 00:28:29;;;;;;;5.35;4.95;;;13.30;99.90;;;;;;4996594;28;20050;-90
2021/06/04 00:30:56;;;;;;;7.38;5.57;;;13.40;99.90;;;;;;5013848;28;20042;-90
2021/06/04 00:33:23;;;;;;;5.97;5.32;;;13.50;99.90;;;;;;5013863;28;20405;-89
2021/06/04 00:35:50;;;;;;;5.75;5.10;;;13.60;99.90;;;;;;4996482;28;20050;-89
2021/06/04 00:38:17;;;;;;;5.55;5.05;;;13.70;99.90;;;;;;4996289;28;20049;-88
2021/06/04 00:40:49;;;;;;;6.38;5.50;;;13.70;99.90;;;;;;4996266;28;20086;-89
2021/06/04 00:43:16;;;;;;;6.68;5.05;;;13.70;99.90;;;;;;5016334;28;20566;-89
2021/06/04 00:45:47;;;;;;;5.35;5.03;;;13.60;99.90;;;;;;5017551;28;20057;-90
2021/06/04 00:48:15;;;;;;;5.45;4.93;;;13.60;99.90;;;;;;5000551;28;20057;-90
2021/06/04 00:50:51;;;;;;;6.50;5.57;;;13.60;99.90;;;;;;5001657;28;20401;-89
2021/06/04 00:53:21;;;;;;;5.97;5.20;;;13.50;99.90;;;;;;5002526;28;20488;-90
2021/06/04 00:55:49;;;;;;;5.35;5.05;;;13.50;99.90;;;;;;5000715;28;20054;-90
2021/06/04 00:58:28;;;;;;;6.85;5.60;;;13.50;99.90;;;;;;5000350;28;20092;-90
2021/06/04 01:00:57;;;;;;;6.00;5.45;;;13.50;99.90;;;;;;5000205;28;20053;-90
2021/06/04 01:03:28;;;;;;;6.45;5.85;;;13.60;99.90;;;;;;5002484;28;20064;-90
2021/06/04 01:06:15;;;;;;;5.47;4.82;;;13.60;99.90;;;;;;5013011;28;20056;-89
2021/06/04 01:09:13;;;;;;;6.90;5.25;;;13.80;99.90;;;;;;5015342;28;20046;-90
2021/06/04 01:12:14;;;;;;;5.85;4.85;;;13.90;99.90;;;;;;4966178;28;20046;-90
2021/06/04 01:15:06;;;;;;;5.90;5.43;;;13.90;99.90;;;;;;4999578;28;20054;-90
2021/06/04 01:17:44;;;;;;;5.70;5.30;;;14.00;99.90;;;;;;4999851;28;20132;-89
2021/06/04 01:20:17;;;;;;;6.68;5.10;;;14.00;99.90;;;;;;4999710;28;20054;-89
2021/06/04 01:23:13;;;;;;;5.40;5.00;;;14.00;99.90;;;;;;4999655;28;20083;-88
2021/06/04 01:25:52;;;;;;;5.18;4.70;;;14.00;99.90;;;;;;4964841;28;20548;-89
2021/06/04 01:28:25;;;;;;;5.47;4.97;;;14.00;99.90;;;;;;4999384;28;20132;-89
2021/06/04 01:31:01;;;;;;;5.97;5.38;;;14.10;99.90;;;;;;4999417;28;20092;-89
2021/06/04 01:33:43;;;;;;;5.53;5.03;;;14.30;99.90;;;;;;4999815;28;20203;-89
2021/06/04 01:36:13;;;;;;;5.80;4.70;;;14.40;99.90;;;;;;4999370;28;20144;-89
2021/06/04 01:38:42;;;;;;;4.38;4.07;;;14.40;99.90;;;;;;4999288;28;20053;-89
2021/06/04 01:41:12;;;;;;;5.10;4.60;;;14.40;99.90;;;;;;4999283;28;20045;-89
2021/06/04 01:43:52;;;;;;;5.43;5.00;;;14.40;99.90;;;;;;5015594;28;20060;-89
2021/06/04 01:46:29;;;;;;;7.57;5.30;;;14.40;99.90;;;;;;4999293;28;20137;-89
2021/06/04 01:49:01;;;;;;;6.13;5.28;;;14.30;99.90;;;;;;5015134;28;20118;-89
2021/06/04 01:51:40;;;;;;;6.88;5.13;;;14.30;99.90;;;;;;4998849;28;20046;-89
2021/06/04 01:54:14;;;;;;;7.55;5.28;;;14.20;99.90;;;;;;4997713;28;20056;-90
2021/06/04 01:56:46;;;;;;;7.57;5.13;;;14.20;99.90;;;;;;5015875;28;20060;-88
2021/06/04 01:59:35;;;;;;;6.30;4.82;;;14.20;99.90;;;;;;5016066;28;20060;-88
2021/06/04 02:02:03;;;;;;;5.80;4.70;;;14.30;99.90;;;;;;5016046;28;20466;-89
2021/06/04 02:04:40;;;;;;;5.22;4.82;;;14.40;99.90;;;;;;5015633;28;20101;-89
2021/06/04 02:07:10;;;;;;;5.35;4.93;;;14.40;99.90;;;;;;4998446;28;20053;-90
2021/06/04 02:09:37;;;;;;;5.88;5.18;;;14.40;99.90;;;;;;4998897;28;20057;-89
2021/06/04 02:12:06;;;;;;;8.73;5.55;;;14.40;99.90;;;;;;4998940;28;20046;-89
2021/06/04 02:14:38;;;;;;;5.88;5.28;;;14.40;99.90;;;;;;4998481;28;20096;-89
2021/06/04 02:17:08;;;;;;;9.25;5.50;;;14.40;99.90;;;;;;5015935;28;20060;-89
2021/06/04 02:19:59;;;;;;;8.00;5.57;;;14.40;99.90;;;;;;4998920;28;20050;-89
2021/06/04 02:22:29;;;;;;;5.90;5.47;;;14.40;99.90;;;;;;5019862;28;20483;-89
2021/06/04 02:25:08;;;;;;;5.45;4.80;;;14.40;99.90;;;;;;5020533;28;20034;-89
2021/06/04 02:27:39;;;;;;;6.10;4.93;;;14.40;99.90;;;;;;5003692;28;20046;-89
2021/06/04 02:30:08;;;;;;;5.32;4.88;;;14.40;99.90;;;;;;4998407;28;20062;-89
2021/06/04 02:32:47;;;;;;;5.38;4.93;;;14.50;99.90;;;;;;4998391;28;20052;-89
2021/06/04 02:35:20;;;;;;;4.97;4.57;;;14.50;99.90;;;;;;4998139;28;20108;-89
2021/06/04 02:38:11;;;;;;;5.22;4.72;;;14.60;99.90;;;;;;4998374;28;20144;-89
2021/06/04 02:40:43;;;;;;;5.35;4.85;;;14.50;99.90;;;;;;5015494;28;20050;-89
2021/06/04 02:43:22;;;;;;;8.25;5.07;;;14.60;99.90;;;;;;4998229;28;20128;-89
2021/06/04 02:45:56;;;;;;;5.13;4.68;;;14.70;99.90;;;;;;4997867;28;20050;-89
2021/06/04 02:48:25;;;;;;;8.27;5.10;;;14.70;99.90;;;;;;4998436;28;20088;-89
2021/06/04 02:51:05;;;;;;;4.88;4.57;;;14.70;99.90;;;;;;4997849;28;20046;-89
2021/06/04 02:53:37;;;;;;;5.70;5.20;;;14.80;99.90;;;;;;4997945;28;20045;-89
2021/06/04 02:56:23;;;;;;;5.68;4.60;;;14.70;99.90;;;;;;5015899;28;20053;-89
2021/06/04 02:58:58;;;;;;;5.82;5.30;;;14.60;99.90;;;;;;4997992;28;20056;-89
2021/06/04 03:01:32;;;;;;;5.25;4.75;;;14.70;99.90;;;;;;5015518;28;20049;-89
2021/06/04 03:04:01;;;;;;;5.32;4.82;;;14.60;99.90;;;;;;5015726;28;20058;-88
2021/06/04 03:06:33;;;;;;;6.18;5.25;;;14.70;99.90;;;;;;4998686;28;20048;-89
2021/06/04 03:09:00;;;;;;;6.35;5.25;;;14.70;99.90;;;;;;4999687;28;20050;-89
2021/06/04 03:11:31;;;;;;;5.75;5.25;;;14.70;99.90;;;;;;4997905;28;20054;-88
2021/06/04 03:14:05;;;;;;;6.47;5.43;;;14.80;99.90;;;;;;4997834;28;20088;-88
2021/06/04 03:16:32;;;;;;;5.93;5.35;;;14.80;99.90;;;;;;4997715;28;20050;-88
2021/06/04 03:19:07;;;;;;;5.95;4.88;;;14.90;99.90;;;;;;5014940;28;20041;-89
2021/06/04 03:21:39;;;;;;;9.18;5.00;;;14.80;99.90;;;;;;4997468;28;20145;-89
2021/06/04 03:24:09;;;;;;;5.82;5.30;;;14.90;99.90;;;;;;4997615;28;20430;-88
2021/06/04 03:26:37;;;;;;;11.50;5.13;;;14.90;99.90;;;;;;4997608;28;20144;-89
2021/06/04 03:29:09;;;;;;;5.32;4.82;;;14.90;99.90;;;;;;4998791;28;20056;-89
2021/06/04 03:31:38;;;;;;;5.85;5.00;;;15.00;99.90;;;;;;5016052;28;20041;-89
2021/06/04 03:34:07;;;;;;;10.30;5.47;;;14.90;99.90;;;;;;4997163;28;20053;-89
2021/06/04 03:36:37;;;;;;;6.80;5.20;;;14.80;99.90;;;;;;5014843;28;20154;-88
2021/06/04 03:39:08;;;;;;;7.32;6.10;;;14.90;99.90;;;;;;5015184;28;20053;-89
2021/06/04 03:41:37;;;;;;;5.32;4.93;;;14.80;99.90;;;;;;5025917;28;20049;-89
2021/06/04 03:44:07;;;;;;;7.68;5.53;;;14.80;99.90;;;;;;5033895;28;20109;-90
2021/06/04 03:46:34;;;;;;;6.78;5.45;;;14.80;99.90;;;;;;4997144;28;20410;-89
2021/06/04 03:49:02;;;;;;;5.07;4.68;;;14.80;99.90;;;;;;5014173;28;20056;-89
2021/06/04 03:51:34;;;;;;;5.30;4.80;;;14.80;99.90;;;;;;4997654;28;20476;-90
2021/06/04 03:54:02;;;;;;;7.72;5.07;;;14.80;99.90;;;;;;4998107;28;20129;-90
2021/06/04 03:56:29;;;;;;;12.45;5.05;;;14.90;99.90;;;;;;5013447;28;20061;-89
2021/06/04 03:58:57;;;;;;;4.88;4.47;;;14.80;99.90;;;;;;4996699;28;20085;-90
2021/06/04 04:01:31;;;;;;;4.90;4.50;;;14.90;99.90;;;;;;5014120;28;20057;-89
2021/06/04 04:03:59;;;;;;;7.63;4.38;;;15.00;99.90;;;;;;4997427;28;20083;-89
2021/06/04 04:06:26;;;;;;;7.32;4.25;;;15.20;99.90;;;;;;5015078;28;20042;-89
2021/06/04 04:08:53;;;;;;;8.18;4.60;;;15.30;99.90;;;;;;4999015;28;20056;-89
2021/06/04 04:11:20;;;;;;;7.68;5.05;;;15.40;99.90;;;;;;4997002;28;20049;-89
2021/06/04 04:13:49;;;;;;;4.78;4.47;;;15.40;99.90;;;;;;5014075;28;20056;-89
2021/06/04 04:16:16;;;;;;;5.05;4.65;;;15.50;99.90;;;;;;4996494;28;20050;-89
2021/06/04 04:18:43;;;;;;;6.35;4.70;;;15.60;99.90;;;;;;4996783;28;20052;-91
2021/06/04 04:21:11;;;;;;;9.52;4.85;;;15.60;99.90;;;;;;4996981;28;20125;-90
2021/06/04 04:23:43;;;;;;;4.90;4.50;;;15.70;99.90;;;;;;4996636;28;20085;-91
2021/06/04 04:26:13;;;;;;;6.55;5.63;;;15.60;99.90;;;;;;4997120;28;20060;-90
2021/06/04 04:28:43;;;;;;;8.23;5.88;;;15.70;99.90;;;;;;5015034;28;20096;-89
2021/06/04 04:31:14;;;;;;;7.18;6.07;;;15.70;99.90;;;;;;4996852;28;20050;-90
2021/06/04 04:33:41;;;;;;;7.65;6.72;;;15.70;99.90;;;;;;4996778;28;20132;-90
2021/06/04 04:36:14;;;;;;;7.50;5.60;;;15.70;99.90;;;;;;4996181;28;20058;-90
2021/06/04 04:38:41;;;;;;;5.93;5.45;;;15.80;99.90;;;;;;4996393;28;20088;-90
2021/06/04 04:41:08;;;;;;;8.52;6.38;;;15.90;99.90;;;;;;4996505;28;20058;-90
2021/06/04 04:43:40;;;;;;;11.50;5.50;;;16.10;99.90;;;;;;4996886;28;20085;-89
2021/06/04 04:46:09;;;;;;;9.45;5.75;;;16.10;99.90;;;;;;4996362;28;20068;-90
2021/06/04 04:48:36;;;;;;;7.10;5.50;;;16.10;99.90;;;;;;4996613;28;20490;-89
2021/06/04 04:51:04;;;;;;;9.80;5.10;;;16.10;99.90;;;;;;4996187;28;20064;-89
2021/06/04 04:53:31;;;;;;;5.93;5.32;;;16.30;99.90;;;;;;4996547;28;20056;-90
2021/06/04 04:55:59;;;;;;;7.68;4.82;;;16.50;99.90;;;;;;4996698;28;20064;-90
2021/06/04 04:58:26;;;;;;;5.70;4.68;;;16.40;99.90;;;;;;5000021;28;20064;-90
2021/06/04 05:00:54;;;;;;;8.30;4.85;;;16.60;99.90;;;;;;5019752;28;20041;-90
2021/06/04 05:03:22;;;;;;;8.20;4.88;;;16.60;99.90;;;;;;5006350;28;20046;-90
2021/06/04 05:05:50;;;;;;;7.63;5.18;;;16.90;99.90;;;;;;4996085;28;20438;-90
2021/06/04 05:08:17;;;;;;;5.38;4.97;;;16.90;99.90;;;;;;4995887;28;20053;-90
2021/06/04 05:10:45;;;;;;;5.32;4.80;;;17.10;99.90;;;;;;5001268;28;20052;-89
2021/06/04 05:13:13;;;;;;;5.63;5.00;;;17.20;99.90;;;;;;4996463;28;20078;-88
2021/06/04 05:15:41;;;;;;;7.93;5.47;;;17.50;99.90;;;;;;4995949;28;20417;-90
2021/06/04 05:18:11;;;;;;;7.82;4.47;;;17.70;99.90;;;;;;4995876;28;20061;-90
2021/06/04 05:20:38;;;;;;;12.77;5.32;;;17.70;99.90;;;;;;5016934;28;20061;-90
2021/06/04 05:23:05;;;;;;;6.30;4.82;;;17.80;99.90;;;;;;4999562;28;20049;-90
2021/06/04 05:25:36;;;;;;;6.85;3.75;;;17.90;99.90;;;;;;5001835;28;20050;-90
2021/06/04 05:28:07;;;;;;;9.73;4.30;;;18.20;99.90;;;;;;4997334;28;20132;-91
2021/06/04 05:30:37;;;;;;;6.80;4.00;;;18.40;99.90;;;;;;5017137;28;20056;-90
2021/06/04 05:33:06;;;;;;;6.25;3.58;;;18.50;99.90;;;;;;5000164;28;20053;-88
2021/06/04 05:35:33;;;;;;;4.57;3.50;;;18.60;99.90;;;;;;5000281;28;20085;-88
2021/06/04 05:38:00;;;;;;;3.40;3.30;;;18.80;99.90;;;;;;4983763;28;20053;-88
2021/06/04 05:40:30;;;;;;;3.70;3.50;;;19.00;99.90;;;;;;5000846;28;20049;-88
2021/06/04 05:42:58;;;;;;;4.05;3.67;;;19.20;99.90;;;;;;4999464;28;20078;-88
2021/06/04 05:45:28;;;;;;;4.38;4.00;;;19.20;99.90;;;;;;4999497;28;20057;-88
2021/06/04 05:47:55;;;;;;;5.40;4.50;;;19.10;99.90;;;;;;4999191;28;20089;-88
2021/06/04 05:50:37;;;;;;;6.88;4.30;;;18.90;99.90;;;;;;4999544;28;20056;-88
2021/06/04 05:53:06;;;;;;;7.80;5.28;;;18.90;99.90;;;;;;4996258;28;20411;-88
2021/06/04 05:55:35;;;;;;;8.45;4.75;;;18.90;99.90;;;;;;4999080;28;20057;-88
2021/06/04 05:58:05;;;;;;;5.45;4.60;;;18.80;99.90;;;;;;4999522;28;20050;-89
2021/06/04 06:00:36;;;;;;;5.47;4.18;;;18.70;99.90;;;;;;4999408;28;20089;-88
2021/06/04 06:03:06;;;;;;;6.35;4.43;;;18.70;99.90;;;;;;4999067;28;20053;-90
2021/06/04 06:05:33;;;;;;;6.05;4.10;;;18.70;99.90;;;;;;4999365;28;20084;-87
2021/06/04 06:08:00;;;;;;;8.60;4.40;;;18.70;99.90;;;;;;4999108;28;20128;-89
2021/06/04 06:10:27;;;;;;;5.88;4.45;;;18.70;99.90;;;;;;5017970;28;20052;-88
2021/06/04 06:12:54;;;;;;;7.35;4.72;;;18.70;99.90;;;;;;4998801;28;20050;-88
2021/06/04 06:15:25;;;;;;;6.10;4.75;;;18.60;99.90;;;;;;5000554;28;20053;-88
2021/06/04 06:17:52;;;;;;;8.60;4.57;;;18.60;99.90;;;;;;5014971;28;20119;-88
2021/06/04 06:20:23;;;;;;;4.88;3.65;;;18.60;99.90;;;;;;5017895;28;20455;-87
2021/06/04 06:22:51;;;;;;;3.70;3.40;;;18.60;99.90;;;;;;5015219;28;20508;-88
2021/06/04 06:25:26;;;;;;;6.20;3.53;;;18.70;99.90;;;;;;4998395;28;20046;-87
2021/06/04 06:27:53;;;;;;;8.07;3.70;;;18.70;99.90;;;;;;5015653;28;20128;-88
2021/06/04 06:30:23;;;;;;;4.10;3.55;;;18.70;99.90;;;;;;5016114;28;20060;-88
2021/06/04 06:32:50;;;;;;;5.47;3.85;;;18.80;99.90;;;;;;4998933;28;20050;-88
2021/06/04 06:35:25;;;;;;;3.60;3.35;;;18.80;99.90;;;;;;4997176;28;20085;-89
2021/06/04 06:37:52;;;;;;;7.82;4.00;;;18.90;99.90;;;;;;4997684;28;20476;-88
2021/06/04 06:40:19;;;;;;;9.35;4.40;;;19.10;99.90;;;;;;5015169;28;20064;-89
2021/06/04 06:42:46;;;;;;;6.25;3.88;;;19.10;99.90;;;;;;4998608;28;20060;-88
2021/06/04 06:45:14;;;;;;;6.65;4.57;;;19.20;99.90;;;;;;4998548;28;20053;-89
2021/06/04 06:47:41;;;;;;;17.70;4.72;;;19.20;99.90;;;;;;4998634;28;20053;-89
2021/06/04 06:50:10;;;;;;;7.32;4.60;;;19.20;99.90;;;;;;4998087;28;20054;-87
2021/06/04 06:52:38;;;;;;;10.77;4.70;;;19.20;99.90;;;;;;4998259;28;20082;-89
2021/06/04 06:55:08;;;;;;;16.52;4.43;;;19.10;99.90;;;;;;4998004;28;20061;-90
2021/06/04 06:57:35;;;;;;;13.38;4.57;;;19.20;99.90;;;;;;5015880;28;20461;-89
2021/06/04 07:00:09;;;;;;;22.20;4.97;;;19.40;99.90;;;;;;4998311;28;20092;-89
2021/06/04 07:02:36;;;;;;;15.77;4.60;;;19.90;99.90;;;;;;5000230;28;20056;-90
2021/06/04 07:05:04;;;;;;;12.30;4.85;;;20.60;99.90;;;;;;5000978;28;20050;-90
2021/06/04 07:07:31;;;;;;;14.30;4.50;;;20.90;99.90;;;;;;4998969;28;20050;-90
2021/06/04 07:09:58;;;;;;;15.20;4.53;;;21.50;99.90;;;;;;4998117;28;20072;-90
2021/06/04 07:12:25;;;;;;;9.63;4.40;;;22.20;99.90;;;;;;4998771;28;20513;-91
2021/06/04 07:14:54;;;;;;;10.63;3.80;;;22.90;99.90;;;;;;4998383;28;20053;-90
2021/06/04 07:17:22;;;;;;;6.93;3.75;;;23.30;99.90;;;;;;4998163;28;20132;-90
2021/06/04 07:19:50;;;;;;;4.13;3.30;;;23.90;99.90;;;;;;4998325;28;20057;-89
2021/06/04 07:22:16;;;;;;;6.68;3.10;;;24.30;99.90;;;;;;5015490;28;20548;-90
2021/06/04 07:24:43;;;;;;;4.53;2.70;;;24.50;99.90;;;;;;4998279;28;20054;-89
2021/06/04 07:27:10;;;;;;;2.75;1.60;;;25.30;99.90;;;;;;4997748;28;20545;-89
2021/06/04 07:29:37;;;;;;;5.57;2.15;;;25.80;99.90;;;;;;4997895;28;20615;-90
2021/06/04 07:32:04;;;;;;;2.20;2.00;;;26.30;99.90;;;;;;4999350;28;20043;-91
2021/06/04 07:34:31;;;;;;;1.75;1.42;;;27.10;93.50;;;;;;5006367;28;20060;-91
2021/06/04 07:37:00;;;;;;;2.08;1.88;;;27.30;88.80;;;;;;5020900;28;20064;-90
2021/06/04 07:39:32;;;;;;;3.03;1.60;;;27.30;88.70;;;;;;5017650;28;20080;-90
2021/06/04 07:42:00;;;;;;;1.88;1.50;;;27.40;85.50;;;;;;5002561;28;20140;-91
2021/06/04 07:44:27;;;;;;;1.77;1.48;;;27.40;83.30;;;;;;4997970;28;20052;-91
2021/06/04 07:46:55;;;;;;;6.88;1.80;;;27.30;84.00;;;;;;4997607;28;20491;-90
2021/06/04 07:49:24;;;;;;;3.53;1.50;;;27.10;79.60;;;;;;4997753;28;20553;-91
2021/06/04 07:51:55;;;;;;;8.95;1.75;;;26.90;79.90;;;;;;4997335;28;20474;-89
2021/06/04 07:54:25;;;;;;;1.60;1.50;;;26.80;74.80;;;;;;4997319;28;20129;-89
2021/06/04 07:56:53;;;;;;;1.60;1.50;;;26.40;77.40;;;;;;4982782;28;20150;-91
2021/06/04 07:59:20;;;;;;;3.70;1.80;;;26.10;74.50;;;;;;4978462;28;20050;-91
2021/06/04 08:01:47;;;;;;;1.58;1.50;;;26.10;76.20;;;;;;4977950;28;20128;-93
2021/06/04 08:04:14;;;;;;;1.75;1.40;;;25.90;75.70;;;;;;4995002;28;20050;-92
2021/06/04 08:06:42;;;;;;;2.30;1.80;;;26.00;77.40;;;;;;4978251;28;20542;-90
2021/06/04 08:09:11;;;;;;;2.67;1.48;;;26.30;74.20;;;;;;4978148;28;20528;-90
2021/06/04 08:11:42;;;;;;;1.33;1.20;;;26.70;71.00;;;;;;4977938;28;20061;-92
2021/06/04 08:14:14;;;;;;;3.72;1.80;;;27.60;68.70;;;;;;4978033;28;20084;-90
2021/06/04 08:16:42;;;;;;;2.00;1.80;;;28.90;68.20;;;;;;4977672;28;20057;-91
2021/06/04 08:19:09;;;;;;;2.03;1.63;;;30.00;61.50;;;;;;4994663;28;20427;-92
2021/06/04 08:21:47;;;;;;;4.75;1.40;;;31.20;56.50;;;;;;4977761;28;20057;-91
2021/06/04 08:24:15;;;;;;;5.32;1.73;;;30.70;55.60;;;;;;4990737;28;20086;-90
2021/06/04 08:26:43;;;;;;;3.67;1.80;;;30.60;54.40;;;;;;4995053;28;20105;-90
2021/06/04 08:29:10;;;;;;;1.63;1.52;;;31.90;53.40;;;;;;4977805;28;20054;-94
2021/06/04 08:31:37;;;;;;;1.67;1.58;;;33.50;50.30;;;;;;4994671;28;20129;-90
2021/06/04 08:34:05;;;;;;;1.60;1.20;;;35.30;48.20;;;;;;4977528;28;20050;-91
2021/06/04 08:36:36;;;;;;;1.42;1.35;;;37.00;45.60;;;;;;4979315;28;20042;-94
2021/06/04 08:39:09;;;;;;;1.20;1.10;;;37.30;43.50;;;;;;4980558;28;20066;-90
2021/06/04 08:41:51;;;;;;;5.60;1.48;;;37.40;41.80;;;;;;4981754;28;20054;-91
2021/06/04 08:44:50;;;;;;;3.78;1.42;;;37.30;41.10;;;;;;4979405;28;20487;-93
2021/06/04 08:47:26;;;;;;;2.28;1.30;;;37.40;41.40;;;;;;4986226;28;20058;-90
2021/06/04 08:50:06;;;;;;;4.45;1.65;;;38.20;40.60;;;;;;4977989;28;20043;-90
2021/06/04 08:52:42;;;;;;;4.82;1.20;;;39.30;40.30;;;;;;4979037;28;20060;-91
2021/06/04 08:55:08;;;;;;;3.03;1.15;;;40.20;38.90;;;;;;4990382;28;20089;-92
2021/06/04 08:57:49;;;;;;;1.67;1.30;;;40.30;38.20;;;;;;5019452;28;20057;-92
2021/06/04 09:00:32;;;;;;;2.30;1.58;;;39.80;38.40;;;;;;4999515;28;20042;-93
2021/06/04 09:03:21;;;;;;;1.90;1.27;;;39.80;37.10;;;;;;4997213;28;20062;-91
2021/06/04 09:06:04;;;;;;;1.77;1.23;;;38.90;38.90;;;;;;5001164;28;20069;-91
2021/06/04 09:08:37;;;;;;;3.40;1.35;;;38.40;40.20;;;;;;5002321;28;20052;-92
2021/06/04 09:11:12;;;;;;;2.50;1.13;;;39.10;38.60;;;;;;5000773;28;20054;-91
2021/06/04 09:13:39;;;;;;;1.67;1.30;;;40.80;37.80;;;;;;5000954;28;20050;-92
2021/06/04 09:16:13;;;;;;;1.85;1.15;;;41.40;36.20;;;;;;5000324;28;20141;-90
2021/06/04 09:18:50;;;;;;;2.63;1.40;;;41.00;37.30;;;;;;5000529;28;20076;-89
2021/06/04 09:21:28;;;;;;;1.35;1.20;;;38.90;38.20;;;;;;5000861;28;20073;-91
2021/06/04 09:24:00;;;;;;;2.92;1.20;;;38.00;39.20;;;;;;5000350;28;20517;-92
2021/06/04 09:26:30;;;;;;;1.25;1.23;;;37.40;39.70;;;;;;5000383;28;20458;-92
2021/06/04 09:29:04;;;;;;;1.30;1.00;;;37.20;40.30;;;;;;5000886;28;20517;-93
2021/06/04 09:31:52;;;;;;;1.23;1.10;;;37.10;40.90;;;;;;5000093;28;20304;-93
2021/06/04 09:34:26;;;;;;;1.25;1.15;;;37.40;41.30;;;;;;5000241;28;20092;-90
2021/06/04 09:36:58;;;;;;;;;;;37.10;41.30;;;;;;5000211;28;20054;-89
2021/06/04 09:39:36;;;;;;;2.95;1.13;;;37.60;40.60;;;;;;4999962;28;19928;-91
2021/06/04 09:42:23;;;;;;;4.40;1.30;;;38.00;42.30;;;;;;5000268;28;20409;-92
2021/06/04 09:45:06;;;;;;;3.05;1.30;;;36.60;41.90;;;;;;4999699;28;20124;-89
2021/06/04 09:47:33;;;;;;;;;;;37.10;41.20;;;;;;5000097;28;20077;-91
2021/06/04 09:50:23;;;;;;;0.82;0.82;;;38.40;41.20;;;;;;4999557;28;19922;-90
2021/06/04 09:53:08;;;;;;;1.52;1.05;;;38.90;39.40;;;;;;5003293;28;20050;-90
2021/06/04 09:56:06;;;;;;;13.13;2.15;;;38.50;39.50;;;;;;5013598;28;20169;-90
2021/06/04 09:58:54;;;;;;;2.70;0.90;;;39.20;40.20;;;;;;5008818;28;20133;-86
2021/06/04 10:01:24;;;;;;;3.00;0.80;;;38.50;38.50;;;;;;5000455;28;20064;-91
2021/06/04 10:04:05;;;;;;;1.27;1.17;;;37.40;41.30;;;;;;4999348;28;20050;-93
2021/06/04 10:06:36;;;;;;;1.20;1.10;;;38.30;41.10;;;;;;4995381;28;20054;-91
2021/06/04 10:09:23;;;;;;;2.58;1.23;;;39.10;40.50;;;;;;4999896;28;20050;-91
2021/06/04 10:11:57;;;;;;;1.10;0.82;;;38.80;39.90;;;;;;5005214;28;20121;-92
2021/06/04 10:14:51;;;;;;;4.13;0.95;;;38.10;41.80;;;;;;5018013;28;20080;-87
2021/06/04 10:17:47;;;;;;;5.53;1.25;;;37.60;41.20;;;;;;5001814;28;20348;-89
2021/06/04 10:20:46;;;;;;;4.85;1.30;;;36.90;41.70;;;;;;4998533;28;20453;-94
2021/06/04 10:23:36;;;;;;;4.72;1.10;;;38.20;41.00;;;;;;4999047;28;20053;-91
2021/06/04 10:26:35;;;;;;;1.73;1.17;;;38.00;40.70;;;;;;5003108;28;20056;-90
2021/06/04 10:29:07;;;;;;;2.47;1.17;;;37.90;41.30;;;;;;5016793;28;20052;-93
2021/06/04 10:31:42;;;;;;;6.70;2.03;;;37.60;41.10;;;;;;5018163;28;20133;-92
2021/06/04 10:34:40;;;;;;;2.25;1.50;;;37.40;41.20;;;;;;5026604;28;20041;-88
2021/06/04 10:37:20;;;;;;;15.05;2.25;;;37.50;41.10;;;;;;5015275;28;20081;-90
2021/06/04 10:40:00;;;;;;;3.05;1.30;;;37.70;41.80;;;;;;5013137;28;20057;-90
2021/06/04 10:42:41;;;;;;;2.13;1.20;;;37.60;41.70;;;;;;5018916;28;20059;-90
2021/06/04 10:45:19;;;;;;;4.30;1.20;;;37.60;41.40;;;;;;5035911;28;20049;-89
2021/06/04 10:48:01;;;;;;;4.85;1.33;;;37.40;41.90;;;;;;5018029;28;20565;-90
2021/06/04 10:50:38;;;;;;;5.38;1.50;;;37.80;42.20;;;;;;5017264;28;20053;-90
2021/06/04 10:53:18;;;;;;;5.82;1.60;;;37.40;40.60;;;;;;5019040;28;20088;-88
2021/06/04 10:56:30;;;;;;;1.85;1.30;;;35.00;42.90;;;;;;5007235;28;20051;-90
2021/06/04 10:59:20;;;;;;;4.53;1.35;;;33.90;45.70;;;;;;5012190;28;20482;-90
2021/06/04 11:02:01;;;;;;;3.70;1.30;;;34.30;44.70;;;;;;5018108;28;20140;-90
2021/06/04 11:04:40;;;;;;;1.40;1.30;;;34.20;45.40;;;;;;5035583;28;20042;-88
2021/06/04 11:07:27;;;;;;;1.92;1.38;;;33.70;46.20;;;;;;5017942;28;20065;-92
2021/06/04 11:10:17;;;;;;;1.92;1.30;;;33.80;47.00;;;;;;5019898;28;20506;-91
2021/06/04 11:12:55;;;;;;;4.45;1.30;;;34.40;47.00;;;;;;5018481;28;20406;-90
2021/06/04 11:15:48;;;;;;;3.75;1.20;;;34.00;46.00;;;;;;5017916;28;20092;-93
2021/06/04 11:18:39;;;;;;;1.50;1.40;;;34.20;45.90;;;;;;5017751;28;20052;-90
2021/06/04 11:21:31;;;;;;;1.17;1.08;;;34.00;46.80;;;;;;5017147;28;20581;-92
2021/06/04 11:24:02;;;;;;;2.95;1.20;;;34.10;45.50;;;;;;5017451;28;20093;-90
2021/06/04 11:26:41;;;;;;;3.97;1.63;;;33.20;47.10;;;;;;5020734;28;20494;-93
2021/06/04 11:29:13;;;;;;;2.55;1.65;;;32.70;47.70;;;;;;5037822;28;20053;-91
2021/06/04 11:32:02;;;;;;;1.70;1.60;;;32.00;48.60;;;;;;5027298;28;20057;-90
2021/06/04 11:34:44;;;;;;;4.15;1.40;;;31.80;49.00;;;;;;5030361;28;20115;-90
2021/06/04 11:37:40;;;;;;;1.95;1.40;;;31.20;49.50;;;;;;5018532;28;20056;-88
2021/06/04 11:40:09;;;;;;;3.63;1.35;;;31.10;50.20;;;;;;5017184;28;20140;-87
2021/06/04 11:42:53;;;;;;;5.30;1.40;;;31.50;50.80;;;;;;5018023;28;20397;-88
2021/06/04 11:45:25;;;;;;;2.95;1.35;;;32.50;50.30;;;;;;5021021;28;20057;-87
2021/06/04 11:47:53;;;;;;;5.38;1.75;;;32.20;48.20;;;;;;5018057;28;20050;-88
2021/06/04 11:50:36;;;;;;;4.38;1.40;;;32.80;49.00;;;;;;5017151;28;20141;-90
2021/06/04 11:53:29;;;;;;;18.50;3.22;;;33.30;48.20;;;;;;5018838;28;20086;-91
2021/06/04 11:56:10;;;;;;;1.85;1.17;;;32.70;47.50;;;;;;5020129;28;20490;-90
2021/06/04 11:58:36;;;;;;;2.63;1.50;;;32.70;48.00;;;;;;5017642;28;20059;-89
2021/06/04 12:01:21;;;;;;;1.83;1.17;;;33.00;49.50;;;;;;5017413;28;20561;-87
2021/06/04 12:04:10;;;;;;;1.30;1.30;;;33.50;48.00;;;;;;5017471;28;20438;-88
2021/06/04 12:06:57;;;;;;;3.00;1.27;;;33.90;48.20;;;;;;5015682;28;20103;-88
2021/06/04 12:09:33;;;;;;;3.10;1.23;;;33.80;48.20;;;;;;5018564;28;20050;-90
2021/06/04 12:12:25;;;;;;;2.38;1.27;;;33.00;47.80;;;;;;5020400;28;20514;-87
2021/06/04 12:14:55;;;;;;;2.47;1.42;;;32.40;49.30;;;;;;5018894;28;20049;-87
2021/06/04 12:17:29;;;;;;;2.40;1.27;;;32.20;50.60;;;;;;5035927;28;20053;-88
2021/06/04 12:20:20;;;;;;;3.00;1.38;;;32.40;50.30;;;;;;5017255;28;20103;-88
2021/06/04 12:22:57;;;;;;;1.65;1.20;;;32.50;50.10;;;;;;5017261;28;20049;-88
2021/06/04 12:25:58;;;;;;;4.40;1.30;;;32.50;49.30;;;;;;5018662;28;20482;-88
2021/06/04 12:28:27;;;;;;;1.02;0.98;;;33.10;49.20;;;;;;5038187;28;20107;-87
2021/06/04 12:31:01;;;;;;;3.38;1.70;;;33.30;49.60;;;;;;5016970;28;20084;-89
2021/06/04 12:33:42;;;;;;;2.55;1.45;;;32.90;48.90;;;;;;5017540;28;20049;-89
2021/06/04 12:36:49;;;;;;;2.80;1.40;;;32.50;48.60;;;;;;5017355;28;20095;-87
2021/06/04 12:39:29;;;;;;;4.57;1.40;;;32.10;49.20;;;;;;5016310;28;20053;-87
2021/06/04 12:42:11;;;;;;;2.63;1.50;;;31.50;50.30;;;;;;5017452;28;20053;-88
2021/06/04 12:44:40;;;;;;;1.30;1.30;;;31.30;51.30;;;;;;5037039;28;20446;-85
2021/06/04 12:47:12;;;;;;;2.17;1.50;;;31.60;50.80;;;;;;5017978;28;20049;-89
2021/06/04 12:49:39;;;;;;;4.10;1.37;;;31.50;50.60;;;;;;5019141;28;20042;-87
2021/06/04 12:52:14;;;;;;;2.00;1.20;;;31.40;51.90;;;;;;5027965;28;20124;-87
2021/06/04 12:54:41;;;;;;;1.67;1.52;;;30.80;50.80;;;;;;5036445;28;20129;-88
2021/06/04 12:57:24;;;;;;;2.15;1.40;;;30.50;52.40;;;;;;5018910;28;20057;-88
2021/06/04 12:59:52;;;;;;;3.92;1.48;;;30.50;54.40;;;;;;5019098;28;20128;-88
2021/06/04 13:02:24;;;;;;;1.40;1.30;;;30.20;54.90;;;;;;5016935;28;20049;-89
2021/06/04 13:04:54;;;;;;;4.63;1.23;;;30.40;54.60;;;;;;5016761;28;20132;-88
2021/06/04 13:07:31;;;;;;;2.30;1.50;;;30.60;53.30;;;;;;5016683;28;20111;-89
2021/06/04 13:10:36;;;;;;;1.55;1.20;;;31.00;54.60;;;;;;5017199;28;20132;-88
2021/06/04 13:13:41;;;;;;;4.70;1.88;;;31.10;55.10;;;;;;4977153;28;20495;-90
2021/06/04 13:16:19;;;;;;;3.90;2.00;;;30.90;57.50;;;;;;5011931;28;20053;-88
2021/06/04 13:18:50;;;;;;;3.22;2.00;;;30.80;57.60;;;;;;5034611;28;20056;-90
2021/06/04 13:21:21;;;;;;;2.03;1.58;;;30.60;59.40;;;;;;5017015;28;20152;-89
2021/06/04 13:24:14;;;;;;;2.30;1.40;;;30.50;58.20;;;;;;5017106;28;20049;-89